Time;durP1;ratioP1;P1;durP2;ratioP2;P2;SDS_P1;SDS_P2;PMS_P1;PMS_P2;Temp;Humidity;BMP_temperature;BMP_pressure;BME280_temperature;BME280_humidity;BME280_pressure;Samples;Min_cycle;Max_cycle;Signal;HPM_P1;HPM_P2
2021/04/30 00:01:54;;;;;;;5.03;3.62;;;;;;;35.11;30.54;160427.53;1747386;79;21229;-85
2021/04/30 00:04:26;;;;;;;5.92;3.45;;;;;;;35.03;30.65;160404.73;1745735;79;21205;-85
2021/04/30 00:07:00;;;;;;;4.78;3.65;;;;;;;35.07;30.67;160415.50;1748247;81;21289;-86
2021/04/30 00:09:33;;;;;;;6.30;3.47;;;;;;;35.16;30.62;160440.92;1746257;81;21705;-85
2021/04/30 00:12:05;;;;;;;3.75;3.30;;;;;;;35.23;30.60;160460.98;1746008;81;21202;-85
2021/04/30 00:14:39;;;;;;;3.67;3.37;;;;;;;35.19;30.62;160448.91;1751859;81;21269;-86
2021/04/30 00:17:11;;;;;;;5.55;3.77;;;;;;;35.12;30.72;160428.89;1749116;81;21401;-89
2021/04/30 00:19:44;;;;;;;5.60;3.70;;;;;;;35.02;30.79;160403.42;1744300;81;21226;-87
2021/04/30 00:22:16;;;;;;;4.33;3.40;;;;;;;35.11;30.80;160426.22;1753452;79;21218;-86
2021/04/30 00:24:49;;;;;;;5.03;3.37;;;;;;;35.19;30.77;160448.91;1743803;81;21784;-85
2021/04/30 00:27:22;;;;;;;6.12;3.70;;;;;;;35.29;30.68;160477.00;1742532;81;21154;-85
2021/04/30 00:29:54;;;;;;;4.17;3.20;;;;;;;35.34;30.62;160489.03;1742102;79;21194;-86
2021/04/30 00:32:27;;;;;;;4.55;3.45;;;;;;;35.35;30.60;160493.08;1742597;81;21221;-84
2021/04/30 00:35:02;;;;;;;4.17;3.58;;;;;;;35.38;30.58;160501.06;1739037;81;21241;-85
2021/04/30 00:37:37;;;;;;;4.97;3.08;;;;;;;35.38;30.61;160499.75;1738349;81;21340;-85
2021/04/30 00:40:10;;;;;;;3.47;3.00;;;;;;;35.22;30.70;160458.31;1743115;81;21301;-86
2021/04/30 00:42:43;;;;;;;5.50;4.03;;;;;;;35.22;30.73;160458.31;1738808;81;21274;-84
2021/04/30 00:45:19;;;;;;;5.00;3.40;;;;;;;35.23;30.71;160459.63;1745131;81;21372;-86
2021/04/30 00:47:53;;;;;;;4.22;3.80;;;;;;;35.31;30.62;160481.00;1738865;81;21740;-88
2021/04/30 00:50:28;;;;;;;5.42;3.22;;;;;;;35.24;30.68;160463.61;1752806;81;21328;-85
2021/04/30 00:53:00;;;;;;;6.37;3.98;;;;;;;35.23;30.68;160459.63;1743197;80;21261;-85
2021/04/30 00:55:33;;;;;;;5.62;3.60;;;;;;;35.28;30.69;160473.00;1745059;81;21375;-86
2021/04/30 00:58:05;;;;;;;4.62;3.47;;;;;;;35.25;30.68;160466.28;1750643;80;21321;-86
2021/04/30 01:00:38;;;;;;;4.45;3.72;;;;;;;35.26;30.67;160468.97;1749069;81;21174;-85
2021/04/30 01:03:11;;;;;;;4.22;3.05;;;;;;;35.07;30.92;160415.50;1739522;81;21198;-86
2021/04/30 01:05:43;;;;;;;4.20;3.47;;;;;;;35.08;30.88;160419.48;1738964;81;21270;-87
2021/04/30 01:08:15;;;;;;;5.03;3.50;;;;;;;35.14;30.89;160435.56;1742338;80;21237;-86
2021/04/30 01:10:48;;;;;;;4.78;3.25;;;;;;;35.13;30.85;160434.19;1740185;81;21203;-85
2021/04/30 01:13:20;;;;;;;5.60;3.62;;;;;;;35.09;30.90;160422.17;1740051;81;21246;-86
2021/04/30 01:15:53;;;;;;;5.50;3.22;;;;;;;35.20;30.80;160451.58;1741969;81;21202;-84
2021/04/30 01:22:31;;;;;;;3.67;2.85;;;;;;;35.40;30.64;160506.42;1739407;81;21488;-86
2021/04/30 01:25:05;;;;;;;5.22;2.87;;;;;;;35.44;30.60;160515.78;1717052;81;21852;-86
2021/04/30 01:27:37;;;;;;;3.83;3.45;;;;;;;35.38;30.68;160499.75;1739937;81;21328;-87
2021/04/30 01:30:28;;;;;;;5.25;3.08;;;;;;;35.30;30.75;160478.38;1754161;81;21183;-86
2021/04/30 01:33:01;;;;;;;4.35;3.17;;;;;;;35.26;30.77;160468.97;1739742;81;21219;-86
2021/04/30 01:35:35;;;;;;;4.65;3.40;;;;;;;35.18;30.90;160447.59;1737615;81;21742;-85
2021/04/30 01:38:07;;;;;;;4.65;3.15;;;;;;;35.28;30.84;160474.33;1741976;81;21254;-87
2021/04/30 01:40:40;;;;;;;3.92;3.27;;;;;;;35.22;30.92;160456.94;1737977;81;21774;-86
2021/04/30 01:43:19;;;;;;;5.97;3.20;;;;;;;35.16;30.94;160440.92;1739379;81;21226;-86
2021/04/30 01:45:56;;;;;;;4.47;3.35;;;;;;;35.07;31.04;160415.50;1741164;81;21371;-85
2021/04/30 01:48:31;;;;;;;6.42;3.22;;;;;;;35.05;31.06;160410.09;1737372;81;21392;-86
2021/04/30 01:51:04;;;;;;;5.67;3.58;;;;;;;35.03;31.11;160406.09;1740929;81;21178;-86
2021/04/30 01:53:38;;;;;;;4.55;3.05;;;;;;;35.05;31.09;160411.50;1738459;81;21388;-86
2021/04/30 01:56:12;;;;;;;3.27;2.90;;;;;;;35.01;31.11;160400.75;1744464;80;21371;-85
2021/04/30 01:58:45;;;;;;;4.33;3.10;;;;;;;35.07;31.06;160416.81;1739037;80;21388;-84
2021/04/30 02:01:18;;;;;;;4.08;3.10;;;;;;;35.04;31.07;160408.78;1740335;80;21420;-87
2021/04/30 02:03:51;;;;;;;4.92;3.08;;;;;;;34.98;31.13;160391.39;1740573;81;21701;-85
2021/04/30 02:06:24;;;;;;;5.33;4.15;;;;;;;34.91;31.23;160374.02;1744995;81;21364;-84
2021/04/30 02:08:58;;;;;;;4.20;3.10;;;;;;;34.85;31.28;160357.94;1743049;81;21689;-84
2021/04/30 02:11:30;;;;;;;4.00;3.02;;;;;;;35.00;31.18;160398.06;1744413;80;21313;-84
2021/04/30 02:14:06;;;;;;;4.45;3.40;;;;;;;35.07;31.11;160416.81;1738320;80;21324;-85
2021/04/30 02:16:39;;;;;;;5.90;3.47;;;;;;;35.06;31.13;160412.81;1746704;81;21321;-85
2021/04/30 02:19:12;;;;;;;4.92;3.05;;;;;;;35.05;31.15;160411.50;1738078;81;21186;-87
2021/04/30 02:21:44;;;;;;;3.27;2.85;;;;;;;35.08;31.11;160418.17;1738686;80;21372;-85
2021/04/30 02:24:16;;;;;;;3.20;2.90;;;;;;;35.08;31.12;160418.17;1738269;80;21348;-88
2021/04/30 02:26:48;;;;;;;4.17;3.02;;;;;;;34.96;31.23;160386.03;1738451;81;21324;-85
2021/04/30 02:29:21;;;;;;;3.17;2.70;;;;;;;34.87;31.29;160363.30;1739379;81;21230;-85
2021/04/30 02:31:53;;;;;;;3.47;2.75;;;;;;;34.80;31.34;160343.23;1740949;81;21214;-86
2021/04/30 02:34:26;;;;;;;4.17;2.92;;;;;;;34.84;31.32;160353.95;1739072;81;21420;-86
2021/04/30 02:36:58;;;;;;;2.90;2.65;;;;;;;34.89;31.30;160368.66;1737388;81;21894;-88
2021/04/30 02:39:32;;;;;;;4.50;3.15;;;;;;;34.97;31.23;160388.72;1739957;81;21321;-86
2021/04/30 02:42:05;;;;;;;5.40;3.45;;;;;;;34.89;31.29;160367.34;1738946;81;21975;-85
2021/04/30 02:44:38;;;;;;;4.33;3.12;;;;;;;34.94;31.26;160380.69;1738800;80;21332;-86
2021/04/30 02:47:12;;;;;;;4.12;3.10;;;;;;;34.89;31.31;160367.34;1744822;81;21415;-86
2021/04/30 02:49:46;;;;;;;3.85;2.75;;;;;;;34.96;31.26;160386.03;1744615;80;21332;-89
2021/04/30 02:52:19;;;;;;;3.33;2.80;;;;;;;34.99;31.22;160394.06;1752381;80;21840;-84
2021/04/30 02:54:51;;;;;;;7.33;3.87;;;;;;;34.88;31.30;160365.97;1741172;81;21356;-85
2021/04/30 02:57:24;;;;;;;4.50;3.20;;;;;;;35.00;31.21;160396.75;1748337;81;21922;-85
2021/04/30 02:59:57;;;;;;;4.05;2.95;;;;;;;34.90;31.27;160371.33;1747021;81;21418;-86
2021/04/30 03:02:33;;;;;;;3.45;3.12;;;;;;;34.87;31.31;160363.30;1741014;81;21230;-85
2021/04/30 03:05:08;;;;;;;3.72;2.67;;;;;;;34.82;31.35;160348.59;1748778;81;21371;-85
2021/04/30 03:07:40;;;;;;;4.30;3.02;;;;;;;34.99;31.24;160394.06;1737333;80;21368;-83
2021/04/30 03:10:12;;;;;;;3.55;3.05;;;;;;;34.95;31.25;160383.36;1737776;81;21372;-83
2021/04/30 03:12:52;;;;;;;4.85;3.25;;;;;;;35.01;31.23;160399.42;1747992;81;21987;-85
2021/04/30 03:15:20;;;;;;;5.87;3.30;;;;;;;34.97;31.20;160388.72;1743762;81;21376;-84
2021/04/30 03:17:54;;;;;;;3.35;2.77;;;;;;;34.94;31.24;160382.05;1739307;80;21245;-86
2021/04/30 03:20:26;;;;;;;4.95;2.85;;;;;;;34.99;31.19;160394.06;1743188;80;21952;-84
2021/04/30 03:22:58;;;;;;;5.97;3.45;;;;;;;34.99;31.18;160395.39;1739484;81;21467;-85
2021/04/30 03:25:31;;;;;;;3.62;2.85;;;;;;;34.98;31.22;160391.39;1718017;81;21348;-83
2021/04/30 03:28:03;;;;;;;4.50;3.20;;;;;;;34.94;31.24;160380.69;1745802;81;21799;-85
2021/04/30 03:30:36;;;;;;;4.72;3.08;;;;;;;34.86;31.34;160360.63;1751849;81;21348;-87
2021/04/30 03:33:08;;;;;;;4.33;3.20;;;;;;;34.85;31.37;160357.94;1750922;81;21325;-85
2021/04/30 03:35:41;;;;;;;3.35;3.05;;;;;;;34.79;31.43;160340.56;1746244;81;21376;-84
2021/04/30 03:38:14;;;;;;;4.72;3.50;;;;;;;34.87;31.42;160361.98;1742719;81;21387;-86
2021/04/30 03:40:46;;;;;;;4.20;3.20;;;;;;;34.83;31.45;160351.28;1753126;81;21349;-86
2021/04/30 03:43:18;;;;;;;4.92;3.02;;;;;;;34.77;31.52;160335.25;1751419;81;21874;-86
2021/04/30 03:45:51;;;;;;;4.87;3.20;;;;;;;34.80;31.51;160344.61;1755420;81;21300;-86
2021/04/30 03:48:24;;;;;;;3.77;2.95;;;;;;;34.78;31.51;160339.25;1747546;81;21404;-87
2021/04/30 03:50:58;;;;;;;5.42;3.47;;;;;;;34.77;31.53;160336.56;1741729;81;21399;-85
2021/04/30 03:53:30;;;;;;;3.10;2.80;;;;;;;34.85;31.46;160356.62;1754143;81;21305;-83
2021/04/30 03:56:02;;;;;;;4.85;3.52;;;;;;;34.81;31.52;160347.28;1699578;84;21153;-82
2021/04/30 03:58:35;;;;;;;5.08;3.08;;;;;;;34.76;31.58;160332.58;1699936;84;21203;-83
2021/04/30 04:01:07;;;;;;;4.78;2.72;;;;;;;34.78;31.57;160337.94;1739503;81;21349;-86
2021/04/30 04:03:39;;;;;;;3.75;3.05;;;;;;;34.69;31.69;160315.20;1746463;81;21815;-84
2021/04/30 04:06:11;;;;;;;5.67;3.37;;;;;;;34.65;31.74;160304.48;1767862;81;21206;-84
2021/04/30 04:08:44;;;;;;;4.87;2.90;;;;;;;34.69;31.71;160315.20;1767531;81;21217;-84
2021/04/30 04:11:16;;;;;;;6.35;2.72;;;;;;;34.87;31.65;160363.30;1766970;81;21237;-91
2021/04/30 04:13:50;;;;;;;4.37;3.02;;;;;;;35.02;31.49;160402.06;1767625;81;21416;-83
2021/04/30 04:16:22;;;;;;;4.67;3.52;;;;;;;34.84;31.54;160355.27;1767898;80;21384;-85
2021/04/30 04:18:55;;;;;;;3.85;2.92;;;;;;;34.64;31.79;160301.81;1767451;81;21308;-85
2021/04/30 04:21:28;;;;;;;4.65;3.12;;;;;;;34.67;31.82;160309.84;1767492;81;21701;-82
2021/04/30 04:24:01;;;;;;;4.00;3.08;;;;;;;34.79;31.75;160341.92;1764921;81;21344;-83
2021/04/30 04:26:34;;;;;;;6.45;3.02;;;;;;;34.73;31.79;160325.86;1765322;81;21179;-84
2021/04/30 04:29:07;;;;;;;6.60;3.40;;;;;;;34.80;31.78;160343.23;1753909;81;21313;-83
2021/04/30 04:31:40;;;;;;;4.53;2.80;;;;;;;34.78;31.75;160339.25;1699878;84;21181;-83
2021/04/30 04:34:13;;;;;;;4.03;2.95;;;;;;;34.85;31.71;160357.94;1702172;83;21345;-83
2021/04/30 04:36:46;;;;;;;4.87;3.20;;;;;;;34.81;31.72;160347.28;1673371;86;21589;-84
2021/04/30 04:39:18;;;;;;;3.27;2.87;;;;;;;34.73;31.81;160325.86;1695880;83;21348;-83
2021/04/30 04:41:50;;;;;;;3.72;2.90;;;;;;;34.68;31.88;160311.16;1706437;83;21214;-82
2021/04/30 04:44:22;;;;;;;3.55;3.00;;;;;;;34.72;31.91;160321.88;1715355;83;21725;-82
2021/04/30 04:46:55;;;;;;;4.95;3.30;;;;;;;34.69;31.97;160315.20;1700471;83;21214;-86
2021/04/30 04:49:28;;;;;;;4.62;2.62;;;;;;;34.81;31.85;160345.91;1707337;83;21786;-82
2021/04/30 04:52:00;;;;;;;5.28;2.80;;;;;;;34.89;31.79;160368.66;1699217;83;21787;-84
2021/04/30 04:54:33;;;;;;;7.08;2.90;;;;;;;34.70;31.97;160317.88;1693488;83;21759;-84
2021/04/30 04:57:06;;;;;;;5.22;3.20;;;;;;;34.84;31.82;160355.27;1702558;83;21375;-82
2021/04/30 04:59:38;;;;;;;5.22;3.05;;;;;;;34.87;31.86;160363.30;1699247;83;21223;-83
2021/04/30 05:02:11;;;;;;;5.55;3.30;;;;;;;34.74;31.95;160327.22;1702290;83;21264;-83
2021/04/30 05:04:46;;;;;;;4.47;2.80;;;;;;;34.84;31.92;160355.27;1702544;83;21199;-84
2021/04/30 05:07:19;;;;;;;5.58;3.05;;;;;;;35.02;31.84;160402.06;1693734;83;21796;-85
2021/04/30 05:09:51;;;;;;;3.02;2.70;;;;;;;35.14;31.75;160435.56;1693725;82;21230;-86
2021/04/30 05:12:24;;;;;;;3.98;2.98;;;;;;;35.19;31.69;160450.27;1692567;83;21214;-84
2021/04/30 05:14:57;;;;;;;4.40;3.12;;;;;;;35.16;31.70;160442.23;1693076;83;21187;-82
2021/04/30 05:17:29;;;;;;;5.12;3.40;;;;;;;35.38;31.56;160499.75;1692745;83;21716;-83
2021/04/30 05:20:02;;;;;;;5.67;3.00;;;;;;;35.22;31.75;160456.94;1692563;83;21227;-83
2021/04/30 05:22:36;;;;;;;2.85;2.42;;;;;;;35.18;31.73;160446.28;1701208;82;21272;-83
2021/04/30 05:25:11;;;;;;;7.58;3.65;;;;;;;35.16;31.75;160440.92;1704068;82;21332;-85
2021/04/30 05:27:44;;;;;;;4.85;3.25;;;;;;;35.09;31.82;160422.17;1697976;83;21261;-86
2021/04/30 05:30:17;;;;;;;3.72;2.77;;;;;;;35.08;31.88;160418.17;1702434;83;21772;-85
2021/04/30 05:32:50;;;;;;;4.55;2.85;;;;;;;35.22;31.76;160456.94;1699729;82;21292;-87
2021/04/30 05:35:22;;;;;;;4.78;2.50;;;;;;;35.32;31.64;160485.03;1698508;83;21185;-87
2021/04/30 05:37:54;;;;;;;5.90;2.52;;;;;;;35.30;31.63;160479.69;1702429;83;21190;-87
2021/04/30 05:40:27;;;;;;;4.20;2.22;;;;;;;35.24;31.66;160463.61;1689555;83;21177;-87
2021/04/30 05:43:00;;;;;;;3.85;2.58;;;;;;;35.23;31.64;160460.98;1692425;83;21811;-84
2021/04/30 05:45:33;;;;;;;2.75;2.42;;;;;;;35.38;31.53;160501.06;1695674;83;21197;-85
2021/04/30 05:48:06;;;;;;;3.85;2.77;;;;;;;35.30;31.56;160478.38;1691751;83;21186;-84
2021/04/30 05:50:38;;;;;;;5.05;2.50;;;;;;;35.40;31.50;160505.11;1692624;83;21217;-84
2021/04/30 05:53:11;;;;;;;4.47;2.70;;;;;;;35.46;31.47;160521.13;1687380;83;21237;-84
2021/04/30 05:55:43;;;;;;;4.00;2.60;;;;;;;35.58;31.29;160554.64;1690471;83;21174;-83
2021/04/30 05:58:16;;;;;;;3.92;2.60;;;;;;;35.57;31.28;160551.97;1689473;83;21190;-86
2021/04/30 06:00:48;;;;;;;3.37;2.05;;;;;;;35.58;31.28;160553.28;1700191;83;21209;-86
2021/04/30 06:03:21;;;;;;;3.17;2.30;;;;;;;35.52;31.35;160537.27;1693352;82;21269;-86
2021/04/30 06:05:53;;;;;;;2.37;2.05;;;;;;;35.57;31.33;160551.97;1691443;83;21229;-86
2021/04/30 06:08:26;;;;;;;3.95;2.77;;;;;;;35.57;31.34;160551.97;1688227;82;21713;-85
2021/04/30 06:10:59;;;;;;;4.55;3.12;;;;;;;35.69;31.29;160584.06;1689815;82;21736;-84
2021/04/30 06:13:32;;;;;;;2.60;2.10;;;;;;;35.75;31.24;160598.78;1689005;84;21246;-84
2021/04/30 06:16:05;;;;;;;5.83;2.65;;;;;;;35.74;31.23;160596.09;1682047;84;21387;-85
2021/04/30 06:18:38;;;;;;;3.22;2.35;;;;;;;35.81;31.22;160616.17;1687537;84;21253;-85
2021/04/30 06:21:11;;;;;;;2.50;2.10;;;;;;;35.90;31.17;160638.87;1681537;84;21880;-86
2021/04/30 06:23:44;;;;;;;3.35;2.22;;;;;;;35.91;31.24;160642.92;1680806;84;21210;-86
2021/04/30 06:26:16;;;;;;;3.02;2.22;;;;;;;36.10;31.10;160693.80;1682378;84;21340;-86
2021/04/30 06:28:48;;;;;;;2.83;2.25;;;;;;;35.75;31.43;160598.78;1681339;84;21170;-86
2021/04/30 06:31:22;;;;;;;4.08;2.10;;;;;;;35.76;31.54;160601.47;1685819;82;21242;-87
2021/04/30 06:33:55;;;;;;;4.55;2.33;;;;;;;35.87;31.58;160630.89;1680340;84;21210;-85
2021/04/30 06:36:27;;;;;;;3.55;2.20;;;;;;;36.05;31.46;160679.08;1682051;84;21336;-84
2021/04/30 06:39:01;;;;;;;3.25;2.45;;;;;;;36.09;31.51;160691.11;1687249;84;21188;-86
2021/04/30 06:41:34;;;;;;;3.15;2.20;;;;;;;36.22;31.45;160725.91;1680455;84;21404;-86
2021/04/30 06:44:06;;;;;;;3.87;2.12;;;;;;;36.11;31.58;160697.78;1677044;83;21879;-84
2021/04/30 06:46:40;;;;;;;5.42;3.58;;;;;;;36.26;31.52;160736.62;1677677;84;21159;-85
2021/04/30 06:49:13;;;;;;;2.72;2.37;;;;;;;36.35;31.55;160762.02;1676337;84;22322;-85
2021/04/30 06:51:48;;;;;;;4.10;2.12;;;;;;;36.41;31.60;160776.73;1690868;83;21225;-85
2021/04/30 06:54:20;;;;;;;3.85;2.55;;;;;;;36.49;31.58;160799.55;1685151;84;21393;-85
2021/04/30 06:56:52;;;;;;;4.45;2.70;;;;;;;36.57;31.62;160819.63;1682469;83;21214;-85
2021/04/30 06:59:25;;;;;;;5.35;2.00;;;;;;;36.65;31.65;160842.39;1689028;83;21229;-85
2021/04/30 07:01:57;;;;;;;3.40;2.47;;;;;;;36.73;31.62;160862.48;1681368;84;21281;-86
2021/04/30 07:04:29;;;;;;;4.92;2.60;;;;;;;36.80;31.66;160882.56;1686217;84;21235;-85
2021/04/30 07:07:02;;;;;;;4.17;2.58;;;;;;;36.87;31.66;160899.92;1690609;84;21298;-85
2021/04/30 07:09:34;;;;;;;3.00;2.35;;;;;;;36.98;31.69;160930.78;1683193;84;21242;-86
2021/04/30 07:12:08;;;;;;;3.12;2.60;;;;;;;37.08;31.74;160958.92;1679167;84;21241;-85
2021/04/30 07:14:42;;;;;;;4.47;2.50;;;;;;;37.14;31.78;160973.66;1686751;84;21764;-86
2021/04/30 07:17:14;;;;;;;3.62;2.20;;;;;;;37.22;31.80;160995.06;1680232;83;21215;-85
2021/04/30 07:19:47;;;;;;;3.37;2.50;;;;;;;37.30;31.79;161017.83;1681366;84;21377;-85
2021/04/30 07:22:19;;;;;;;4.12;2.30;;;;;;;37.42;31.72;161048.66;1680064;84;21283;-84
2021/04/30 07:24:52;;;;;;;4.78;2.95;;;;;;;37.50;31.72;161071.44;1684446;84;21222;-84
2021/04/30 07:27:24;;;;;;;2.92;2.17;;;;;;;37.53;31.78;161079.48;1683611;84;21206;-83
2021/04/30 07:29:56;;;;;;;3.65;2.30;;;;;;;37.61;31.83;161100.89;1685804;84;21361;-85
2021/04/30 07:32:29;;;;;;;3.67;2.22;;;;;;;37.63;31.93;161106.25;1680959;83;21178;-84
2021/04/30 07:35:03;;;;;;;3.80;1.92;;;;;;;37.66;31.96;161112.94;1682322;84;21218;-84
2021/04/30 07:37:37;;;;;;;3.05;2.27;;;;;;;37.84;31.90;161161.23;1679348;84;21199;-85
2021/04/30 07:40:10;;;;;;;2.15;1.80;;;;;;;37.93;31.90;161186.66;1683655;84;21867;-84
2021/04/30 07:42:43;;;;;;;2.67;2.10;;;;;;;37.94;31.89;161188.02;1682209;84;21258;-83
2021/04/30 07:45:16;;;;;;;5.75;2.00;;;;;;;38.02;31.85;161210.81;1682270;84;21361;-84
2021/04/30 07:47:49;;;;;;;4.62;2.30;;;;;;;38.04;31.90;161216.13;1679727;84;21238;-85
2021/04/30 07:50:21;;;;;;;4.25;2.22;;;;;;;38.10;31.83;161232.22;1680452;84;21277;-85
2021/04/30 07:52:53;;;;;;;2.25;2.05;;;;;;;38.14;31.83;161242.91;1683144;83;21365;-85
2021/04/30 07:55:26;;;;;;;3.08;2.17;;;;;;;38.31;31.63;161288.53;1713212;83;21761;-85
2021/04/30 07:57:58;;;;;;;2.42;2.08;;;;;;;38.26;31.65;161275.13;1691209;82;21745;-84
2021/04/30 08:00:31;;;;;;;2.50;1.92;;;;;;;38.35;31.59;161299.28;1682060;83;21310;-85
2021/04/30 08:03:03;;;;;;;5.70;2.80;;;;;;;38.44;31.44;161324.70;1680238;84;21250;-85
2021/04/30 08:05:36;;;;;;;3.77;2.10;;;;;;;38.56;31.33;161355.55;1691809;83;21220;-84
2021/04/30 08:08:08;;;;;;;4.92;2.20;;;;;;;38.67;31.25;161385.08;1677695;84;21726;-85
2021/04/30 08:10:40;;;;;;;3.33;2.15;;;;;;;38.76;31.20;161410.56;1683380;84;21778;-86
2021/04/30 08:13:13;;;;;;;2.52;2.10;;;;;;;38.81;31.13;161423.94;1677389;84;21217;-84
2021/04/30 08:15:45;;;;;;;3.87;2.47;;;;;;;38.84;31.06;161432.00;1682430;84;21194;-84
2021/04/30 08:18:17;;;;;;;3.80;1.92;;;;;;;38.96;30.94;161465.47;1679152;84;21179;-84
2021/04/30 08:20:50;;;;;;;2.30;1.75;;;;;;;38.96;30.87;161465.47;1684330;84;21218;-84
2021/04/30 08:23:22;;;;;;;3.02;2.10;;;;;;;38.86;30.94;161436.00;1678383;83;21225;-84
2021/04/30 08:25:55;;;;;;;2.50;2.00;;;;;;;38.85;30.91;161434.67;1686705;84;21278;-84
2021/04/30 08:28:32;;;;;;;4.42;2.20;;;;;;;39.04;30.79;161486.97;1684468;84;21737;-83
2021/04/30 08:31:04;;;;;;;4.58;1.98;;;;;;;39.07;30.74;161493.64;1688306;82;21270;-84
2021/04/30 08:33:36;;;;;;;2.35;1.65;;;;;;;39.16;30.65;161519.19;1678313;84;21253;-85
2021/04/30 08:36:09;;;;;;;2.70;1.80;;;;;;;39.27;30.53;161548.69;1680171;84;21828;-83
2021/04/30 08:38:41;;;;;;;3.05;2.05;;;;;;;39.51;30.41;161613.09;1678757;84;21276;-85
2021/04/30 08:41:14;;;;;;;2.02;1.77;;;;;;;39.53;30.35;161617.09;1680014;84;21187;-85
2021/04/30 08:43:47;;;;;;;2.92;2.05;;;;;;;39.30;30.51;161555.37;1688182;82;21185;-85
2021/04/30 08:46:20;;;;;;;3.90;2.20;;;;;;;39.40;30.47;161582.17;1680067;84;21753;-86
2021/04/30 08:48:52;;;;;;;4.17;2.30;;;;;;;39.44;30.48;161592.92;1683210;84;21349;-85
2021/04/30 08:51:26;;;;;;;3.65;1.90;;;;;;;39.57;30.34;161627.84;1678728;84;21159;-86
2021/04/30 08:53:59;;;;;;;4.15;2.00;;;;;;;39.53;30.36;161617.09;1680855;84;21333;-85
2021/04/30 08:56:32;;;;;;;3.22;2.15;;;;;;;39.50;30.39;161610.41;1680187;84;21316;-85
2021/04/30 08:59:06;;;;;;;5.08;1.90;;;;;;;39.76;30.26;161678.78;1681255;84;21448;-85
2021/04/30 09:01:39;;;;;;;2.87;2.00;;;;;;;39.93;30.11;161724.47;1657443;84;21182;-85
2021/04/30 09:04:12;;;;;;;2.42;2.02;;;;;;;39.91;30.11;161719.03;1683891;84;21206;-85
2021/04/30 09:06:45;;;;;;;4.58;1.85;;;;;;;39.89;30.13;161714.98;1678759;84;21206;-85
2021/04/30 09:09:19;;;;;;;1.90;1.70;;;;;;;39.97;30.10;161737.84;1686959;84;21225;-84
2021/04/30 09:11:53;;;;;;;3.37;2.00;;;;;;;40.05;30.13;161757.97;1682234;84;21661;-84
2021/04/30 09:14:35;;;;;;;2.92;2.02;;;;;;;40.11;30.07;161775.41;1683784;84;21270;-83
2021/04/30 09:17:16;;;;;;;4.62;2.10;;;;;;;40.21;30.00;161802.23;1684850;83;21313;-85
2021/04/30 09:19:56;;;;;;;2.37;1.90;;;;;;;40.31;29.97;161827.75;1685982;84;21856;-85
2021/04/30 09:22:40;;;;;;;3.52;1.87;;;;;;;40.38;29.94;161847.92;1679741;84;21285;-84
2021/04/30 09:25:19;;;;;;;2.75;1.72;;;;;;;40.43;29.93;161860.00;1690164;82;21285;-84
2021/04/30 09:27:53;;;;;;;3.30;2.02;;;;;;;40.53;29.83;161886.83;1688208;84;21250;-84
2021/04/30 09:30:31;;;;;;;2.37;1.67;;;;;;;40.70;29.72;161932.41;1689886;84;21382;-84
2021/04/30 09:33:18;;;;;;;2.77;1.87;;;;;;;40.89;29.57;161984.81;1680639;84;21226;-84
2021/04/30 09:35:56;;;;;;;4.35;2.00;;;;;;;40.90;29.56;161986.19;1685099;82;21375;-85
2021/04/30 09:38:35;;;;;;;5.47;2.10;;;;;;;40.96;29.54;162003.64;1678673;84;21198;-85
2021/04/30 09:41:12;;;;;;;2.80;1.50;;;;;;;40.92;29.59;161994.20;1683260;84;21357;-84
2021/04/30 09:43:48;;;;;;;4.92;1.90;;;;;;;40.89;29.62;161984.81;1679024;84;21282;-86
2021/04/30 09:46:34;;;;;;;3.08;1.72;;;;;;;40.99;29.57;162011.66;1684007;82;21182;-86
2021/04/30 09:49:12;;;;;;;4.12;1.82;;;;;;;41.04;29.52;162025.09;1738972;81;21376;-86
2021/04/30 09:51:53;;;;;;;2.90;1.90;;;;;;;41.06;29.47;162030.48;1741536;81;21294;-84
2021/04/30 09:54:29;;;;;;;3.20;2.00;;;;;;;41.28;29.30;162089.58;1741273;81;21832;-84
2021/04/30 09:57:23;;;;;;;5.03;2.05;;;;;;;41.23;29.31;162076.14;1748178;81;21269;-84
2021/04/30 10:00:00;;;;;;;2.72;1.90;;;;;;;41.29;29.22;162092.28;1739200;80;21194;-84
2021/04/30 10:02:35;;;;;;;3.77;1.95;;;;;;;41.19;29.25;162065.44;1739406;80;21308;-85
2021/04/30 10:05:25;;;;;;;2.72;2.00;;;;;;;41.26;29.15;162084.20;1740915;81;21234;-86
2021/04/30 10:07:56;;;;;;;2.10;1.90;;;;;;;41.34;29.03;162107.05;1735554;81;21388;-84
2021/04/30 10:10:28;;;;;;;4.37;2.05;;;;;;;41.34;28.96;162105.67;1738207;80;21376;-85
2021/04/30 10:13:00;;;;;;;2.47;1.82;;;;;;;41.31;28.92;162098.97;1754257;80;21934;-86
2021/04/30 10:15:32;;;;;;;5.28;2.30;;;;;;;41.38;28.86;162116.42;1743431;80;21170;-86
2021/04/30 10:18:06;;;;;;;3.40;2.75;;;;;;;41.31;28.90;162098.97;1738809;81;22297;-86
2021/04/30 10:20:39;;;;;;;2.55;1.70;;;;;;;41.30;28.90;162096.28;1740739;81;21412;-85
2021/04/30 10:23:16;;;;;;;1.98;1.70;;;;;;;41.30;28.86;162096.28;1740461;81;21177;-86
2021/04/30 10:25:52;;;;;;;2.20;1.87;;;;;;;41.35;28.79;162108.36;1741690;80;21344;-85
2021/04/30 10:28:28;;;;;;;2.80;1.75;;;;;;;41.34;28.88;162105.67;1742493;81;21313;-86
2021/04/30 10:31:10;;;;;;;2.33;1.92;;;;;;;41.40;28.87;162123.12;1719157;81;21343;-86
2021/04/30 10:33:50;;;;;;;2.70;2.02;;;;;;;41.49;28.88;162145.97;1746623;80;21396;-86
2021/04/30 10:36:31;;;;;;;5.05;1.90;;;;;;;41.55;28.80;162162.09;1741127;80;21377;-86
2021/04/30 10:39:05;;;;;;;4.10;2.05;;;;;;;41.54;28.89;162160.72;1740724;81;21498;-85
2021/04/30 10:41:39;;;;;;;2.40;2.00;;;;;;;41.54;28.97;162159.41;1740901;81;21719;-86
2021/04/30 10:44:29;;;;;;;2.62;2.02;;;;;;;41.66;28.95;162191.69;1742734;80;21348;-86
2021/04/30 10:47:12;;;;;;;3.08;2.30;;;;;;;41.73;28.96;162211.78;1739987;81;21376;-86
2021/04/30 10:49:46;;;;;;;5.53;2.60;;;;;;;41.72;28.99;162207.78;1739664;81;21427;-86
2021/04/30 10:52:19;;;;;;;3.47;1.77;;;;;;;41.83;29.03;162237.31;1697761;81;22411;-86
2021/04/30 10:55:09;;;;;;;3.67;1.90;;;;;;;41.94;28.86;162268.22;1738946;81;21190;-85
2021/04/30 10:57:56;;;;;;;2.02;1.80;;;;;;;41.86;28.90;162245.37;1746020;81;21324;-84
2021/04/30 11:00:38;;;;;;;4.65;1.77;;;;;;;41.89;28.91;162256.16;1746955;81;21432;-85
2021/04/30 11:03:21;;;;;;;2.72;1.95;;;;;;;41.86;28.90;162245.37;1746434;81;21337;-85
2021/04/30 11:06:05;;;;;;;3.08;1.85;;;;;;;41.88;28.97;162252.08;1748694;81;21317;-85
2021/04/30 11:08:54;;;;;;;5.12;2.30;;;;;;;42.01;28.97;162288.44;1742465;81;21955;-84
2021/04/30 11:11:39;;;;;;;3.92;2.37;;;;;;;42.10;28.96;162311.22;1741703;81;21491;-86
2021/04/30 11:14:25;;;;;;;3.12;2.30;;;;;;;42.11;29.02;162315.28;1741028;81;21178;-85
2021/04/30 11:16:59;;;;;;;2.47;2.12;;;;;;;42.10;29.00;162311.22;1745250;80;21328;-85
2021/04/30 11:19:32;;;;;;;2.12;1.95;;;;;;;42.07;28.98;162304.52;1743912;81;21174;-83
2021/04/30 11:22:15;;;;;;;5.35;2.10;;;;;;;41.89;29.01;162256.16;1746592;81;21383;-84
2021/04/30 11:24:51;;;;;;;2.50;2.20;;;;;;;42.43;28.65;162401.28;1746132;81;21697;-84
2021/04/30 11:27:26;;;;;;;2.40;2.10;;;;;;;42.63;28.56;162455.02;1747847;80;21801;-86
2021/04/30 11:30:18;;;;;;;3.42;2.47;;;;;;;42.09;28.95;162309.91;1747224;81;21836;-86
2021/04/30 11:32:53;;;;;;;2.75;2.08;;;;;;;42.68;28.69;162467.09;1742076;81;21380;-83
2021/04/30 11:35:27;;;;;;;4.67;2.42;;;;;;;43.07;28.36;162573.30;1746277;80;21423;-83
2021/04/30 11:38:07;;;;;;;2.75;2.50;;;;;;;42.98;28.42;162550.50;1746284;81;22014;-84
2021/04/30 11:41:00;;;;;;;4.10;2.15;;;;;;;43.02;28.45;162561.22;1738046;81;21340;-83
2021/04/30 11:43:33;;;;;;;4.03;2.60;;;;;;;43.01;28.50;162558.52;1740858;81;21852;-84
2021/04/30 11:46:06;;;;;;;4.92;2.58;;;;;;;43.43;28.22;162670.13;1746109;81;21250;-83
2021/04/30 11:48:38;;;;;;;3.55;2.62;;;;;;;43.26;28.33;162625.78;1756967;79;21391;-84
2021/04/30 11:51:14;;;;;;;2.62;2.00;;;;;;;43.26;28.24;162624.45;1740284;80;21362;-82
2021/04/30 11:53:49;;;;;;;3.55;2.40;;;;;;;43.13;28.32;162589.50;1765393;79;21379;-84
2021/04/30 11:56:22;;;;;;;6.15;2.70;;;;;;;43.13;28.39;162590.83;1736184;80;21898;-85
2021/04/30 11:58:54;;;;;;;3.27;2.60;;;;;;;42.65;28.77;162459.08;1761148;79;21170;-87
2021/04/30 12:01:29;;;;;;;3.92;2.20;;;;;;;42.53;28.89;162426.83;1760807;79;21874;-85